Tamanrasset, Algeria
Current Conditions -  °F | °C
As of 4:00 PM on Thursday 23 Oct 2014 (Local Time) from DAAT Reporting Station
Clear Clear  
Wind Chill: 82°   Ceiling: Unl
Heat Index: 82°   Visibility: 6mi
Dew Point: 32°   Wind: 7mph
Humidity: 16%   Direction: 270°W
Pressure: 30.09"   Gusts: NA
Location:  22.78°N, 5.52°E
Report Text: DAAT 231500Z 27006KT 220V020 CAVOK 28/M00 Q1019
Loading
Personal Weather Stations






























Interactive Weather Map New forecast layout! Learn more

10-Day Weather Forecast

Advertisements
Track Severe Weather on mobile